sensor_id;sensor_type;location;lat;lon;timestamp;temperature;humidity
47813;DHT22;34221;45.296;9.516;2024-01-15T00:00:06;2.50;99.90
47813;DHT22;34221;45.296;9.516;2024-01-15T00:00:25;2.50;99.90
47813;DHT22;34221;45.296;9.516;2024-01-15T00:00:40;2.50;99.90
47813;DHT22;34221;45.296;9.516;2024-01-15T00:00:55;2.50;99.90
47813;DHT22;34221;45.296;9.516;2024-01-15T00:01:10;2.50;99.90
47813;DHT22;34221;45.296;9.516;2024-01-15T00:01:24;2.50;99.90
47813;DHT22;34221;45.296;9.516;2024-01-15T00:01:45;2.50;99.90
47813;DHT22;34221;45.296;9.516;2024-01-15T00:02:00;2.40;99.90
47813;DHT22;34221;45.296;9.516;2024-01-15T00:02:15;2.40;99.90
47813;DHT22;34221;45.296;9.516;2024-01-15T00:02:29;2.40;99.90
47813;DHT22;34221;45.296;9.516;2024-01-15T00:02:44;2.40;99.90
47813;DHT22;34221;45.296;9.516;2024-01-15T00:02:59;2.40;99.90
47813;DHT22;34221;45.296;9.516;2024-01-15T00:03:15;2.40;99.90
47813;DHT22;34221;45.296;9.516;2024-01-15T00:03:30;2.40;99.90
47813;DHT22;34221;45.296;9.516;2024-01-15T00:03:44;2.50;99.90
47813;DHT22;34221;45.296;9.516;2024-01-15T00:03:59;2.50;99.90
47813;DHT22;34221;45.296;9.516;2024-01-15T00:04:14;2.50;99.90
47813;DHT22;34221;45.296;9.516;2024-01-15T00:04:29;2.50;99.90
47813;DHT22;34221;45.296;9.516;2024-01-15T00:04:44;2.50;99.90
47813;DHT22;34221;45.296;9.516;2024-01-15T00:04:59;2.60;99.90
47813;DHT22;34221;45.296;9.516;2024-01-15T00:05:14;2.50;99.90
47813;DHT22;34221;45.296;9.516;2024-01-15T00:05:29;2.60;99.90
47813;DHT22;34221;45.296;9.516;2024-01-15T00:05:43;2.60;99.90
47813;DHT22;34221;45.296;9.516;2024-01-15T00:05:58;2.60;99.90
47813;DHT22;34221;45.296;9.516;2024-01-15T00:06:13;2.60;99.90
47813;DHT22;34221;45.296;9.516;2024-01-15T00:06:28;2.50;99.90
47813;DHT22;34221;45.296;9.516;2024-01-15T00:06:43;2.60;99.90
47813;DHT22;34221;45.296;9.516;2024-01-15T00:06:57;2.50;99.90
47813;DHT22;34221;45.296;9.516;2024-01-15T00:07:12;2.50;99.90
47813;DHT22;34221;45.296;9.516;2024-01-15T00:07:27;2.50;99.90
47813;DHT22;34221;45.296;9.516;2024-01-15T00:07:42;2.50;99.90
47813;DHT22;34221;45.296;9.516;2024-01-15T00:07:56;2.40;99.90
47813;DHT22;34221;45.296;9.516;2024-01-15T00:08:11;2.50;99.90
47813;DHT22;34221;45.296;9.516;2024-01-15T00:08:26;2.50;99.90
47813;DHT22;34221;45.296;9.516;2024-01-15T00:08:40;2.50;99.90
47813;DHT22;34221;45.296;9.516;2024-01-15T00:08:55;2.50;99.90
47813;DHT22;34221;45.296;9.516;2024-01-15T00:09:12;2.50;99.90
47813;DHT22;34221;45.296;9.516;2024-01-15T00:09:27;2.50;99.90
47813;DHT22;34221;45.296;9.516;2024-01-15T00:10:02;2.50;99.90
47813;DHT22;34221;45.296;9.516;2024-01-15T00:10:17;2.50;99.90
47813;DHT22;34221;45.296;9.516;2024-01-15T00:10:31;2.50;99.90
47813;DHT22;34221;45.296;9.516;2024-01-15T00:10:46;2.50;99.90
47813;DHT22;34221;45.296;9.516;2024-01-15T00:11:01;2.50;99.90
47813;DHT22;34221;45.296;9.516;2024-01-15T00:11:16;2.50;99.90
47813;DHT22;34221;45.296;9.516;2024-01-15T00:11:30;2.50;99.90
47813;DHT22;34221;45.296;9.516;2024-01-15T00:11:45;2.60;99.90
47813;DHT22;34221;45.296;9.516;2024-01-15T00:12:01;2.50;99.90
47813;DHT22;34221;45.296;9.516;2024-01-15T00:12:16;2.60;99.90
47813;DHT22;34221;45.296;9.516;2024-01-15T00:12:31;2.60;99.90
47813;DHT22;34221;45.296;9.516;2024-01-15T00:12:45;2.60;99.90
47813;DHT22;34221;45.296;9.516;2024-01-15T00:13:00;2.60;99.90
47813;DHT22;34221;45.296;9.516;2024-01-15T00:13:15;2.60;99.90
47813;DHT22;34221;45.296;9.516;2024-01-15T00:13:30;2.70;99.90
47813;DHT22;34221;45.296;9.516;2024-01-15T00:13:45;2.70;99.90
47813;DHT22;34221;45.296;9.516;2024-01-15T00:14:00;2.60;99.90
47813;DHT22;34221;45.296;9.516;2024-01-15T00:14:15;2.60;99.90
47813;DHT22;34221;45.296;9.516;2024-01-15T00:14:34;2.60;99.90
47813;DHT22;34221;45.296;9.516;2024-01-15T00:14:49;2.60;99.90
47813;DHT22;34221;45.296;9.516;2024-01-15T00:15:04;2.60;99.90
47813;DHT22;34221;45.296;9.516;2024-01-15T00:15:23;2.60;99.90
47813;DHT22;34221;45.296;9.516;2024-01-15T00:15:38;2.60;99.90
47813;DHT22;34221;45.296;9.516;2024-01-15T00:15:53;2.60;99.90
47813;DHT22;34221;45.296;9.516;2024-01-15T00:16:07;2.60;99.90
47813;DHT22;34221;45.296;9.516;2024-01-15T00:16:22;2.60;99.90
47813;DHT22;34221;45.296;9.516;2024-01-15T00:16:37;2.60;99.90
47813;DHT22;34221;45.296;9.516;2024-01-15T00:16:52;2.60;99.90
47813;DHT22;34221;45.296;9.516;2024-01-15T00:17:09;2.60;99.90
47813;DHT22;34221;45.296;9.516;2024-01-15T00:17:24;2.70;99.90
47813;DHT22;34221;45.296;9.516;2024-01-15T00:17:39;2.70;99.90
47813;DHT22;34221;45.296;9.516;2024-01-15T00:17:53;2.70;99.90
47813;DHT22;34221;45.296;9.516;2024-01-15T00:18:08;2.70;99.90
47813;DHT22;34221;45.296;9.516;2024-01-15T00:18:23;2.70;99.90
47813;DHT22;34221;45.296;9.516;2024-01-15T00:18:37;2.70;99.90
47813;DHT22;34221;45.296;9.516;2024-01-15T00:18:52;2.70;99.90
47813;DHT22;34221;45.296;9.516;2024-01-15T00:19:07;2.70;99.90
47813;DHT22;34221;45.296;9.516;2024-01-15T00:19:22;2.70;99.90
47813;DHT22;34221;45.296;9.516;2024-01-15T00:19:38;2.70;99.90
47813;DHT22;34221;45.296;9.516;2024-01-15T00:19:53;2.70;99.90
47813;DHT22;34221;45.296;9.516;2024-01-15T00:20:08;2.70;99.90
47813;DHT22;34221;45.296;9.516;2024-01-15T00:20:23;2.70;99.90
47813;DHT22;34221;45.296;9.516;2024-01-15T00:20:37;2.70;99.90
47813;DHT22;34221;45.296;9.516;2024-01-15T00:20:52;2.60;99.90
47813;DHT22;34221;45.296;9.516;2024-01-15T00:21:07;2.60;99.90
47813;DHT22;34221;45.296;9.516;2024-01-15T00:21:22;2.60;99.90
47813;DHT22;34221;45.296;9.516;2024-01-15T00:21:37;2.60;99.90
47813;DHT22;34221;45.296;9.516;2024-01-15T00:21:53;2.60;99.90
47813;DHT22;34221;45.296;9.516;2024-01-15T00:22:07;2.50;99.90
47813;DHT22;34221;45.296;9.516;2024-01-15T00:22:25;2.50;99.90
47813;DHT22;34221;45.296;9.516;2024-01-15T00:22:40;2.50;99.90
47813;DHT22;34221;45.296;9.516;2024-01-15T00:22:54;2.50;99.90
47813;DHT22;34221;45.296;9.516;2024-01-15T00:23:09;2.50;99.90
47813;DHT22;34221;45.296;9.516;2024-01-15T00:23:24;2.50;99.90
47813;DHT22;34221;45.296;9.516;2024-01-15T00:23:42;2.50;99.90
47813;DHT22;34221;45.296;9.516;2024-01-15T00:23:58;2.50;99.90
47813;DHT22;34221;45.296;9.516;2024-01-15T00:24:13;2.50;99.90
47813;DHT22;34221;45.296;9.516;2024-01-15T00:24:28;2.50;99.90
47813;DHT22;34221;45.296;9.516;2024-01-15T00:24:43;2.50;99.90
47813;DHT22;34221;45.296;9.516;2024-01-15T00:24:58;2.40;99.90
47813;DHT22;34221;45.296;9.516;2024-01-15T00:25:12;2.40;99.90
47813;DHT22;34221;45.296;9.516;2024-01-15T00:25:27;2.40;99.90
47813;DHT22;34221;45.296;9.516;2024-01-15T00:25:42;2.40;99.90
47813;DHT22;34221;45.296;9.516;2024-01-15T00:25:57;2.30;99.90
47813;DHT22;34221;45.296;9.516;2024-01-15T00:26:12;2.30;99.90
47813;DHT22;34221;45.296;9.516;2024-01-15T00:26:27;2.30;99.90
47813;DHT22;34221;45.296;9.516;2024-01-15T00:26:42;2.30;99.90
47813;DHT22;34221;45.296;9.516;2024-01-15T00:26:57;2.20;99.90
47813;DHT22;34221;45.296;9.516;2024-01-15T00:27:11;2.20;99.90
47813;DHT22;34221;45.296;9.516;2024-01-15T00:27:26;2.20;99.90
47813;DHT22;34221;45.296;9.516;2024-01-15T00:27:41;2.20;99.90
47813;DHT22;34221;45.296;9.516;2024-01-15T00:27:56;2.20;99.90
47813;DHT22;34221;45.296;9.516;2024-01-15T00:28:11;2.10;99.90
47813;DHT22;34221;45.296;9.516;2024-01-15T00:28:26;2.10;99.90
47813;DHT22;34221;45.296;9.516;2024-01-15T00:28:41;2.10;99.90
47813;DHT22;34221;45.296;9.516;2024-01-15T00:28:56;2.10;99.90
47813;DHT22;34221;45.296;9.516;2024-01-15T00:29:10;2.00;99.90
47813;DHT22;34221;45.296;9.516;2024-01-15T00:29:25;2.00;99.90
47813;DHT22;34221;45.296;9.516;2024-01-15T00:29:40;2.00;99.90
47813;DHT22;34221;45.296;9.516;2024-01-15T00:29:55;1.90;99.90
47813;DHT22;34221;45.296;9.516;2024-01-15T00:30:10;1.90;99.90
47813;DHT22;34221;45.296;9.516;2024-01-15T00:30:25;1.90;99.90
47813;DHT22;34221;45.296;9.516;2024-01-15T00:30:40;1.90;99.90
47813;DHT22;34221;45.296;9.516;2024-01-15T00:30:54;1.90;99.90
47813;DHT22;34221;45.296;9.516;2024-01-15T00:31:09;1.90;99.90
47813;DHT22;34221;45.296;9.516;2024-01-15T00:31:24;1.90;99.90
47813;DHT22;34221;45.296;9.516;2024-01-15T00:31:39;1.80;99.90
47813;DHT22;34221;45.296;9.516;2024-01-15T00:31:55;1.90;99.90
47813;DHT22;34221;45.296;9.516;2024-01-15T00:32:10;1.80;99.90
47813;DHT22;34221;45.296;9.516;2024-01-15T00:32:25;1.80;99.90
47813;DHT22;34221;45.296;9.516;2024-01-15T00:32:40;1.80;99.90
47813;DHT22;34221;45.296;9.516;2024-01-15T00:32:55;1.80;99.90
47813;DHT22;34221;45.296;9.516;2024-01-15T00:33:09;1.80;99.90
47813;DHT22;34221;45.296;9.516;2024-01-15T00:33:26;1.80;99.90
47813;DHT22;34221;45.296;9.516;2024-01-15T00:33:41;1.80;99.90
47813;DHT22;34221;45.296;9.516;2024-01-15T00:33:56;1.80;99.90
47813;DHT22;34221;45.296;9.516;2024-01-15T00:34:12;1.80;99.90
47813;DHT22;34221;45.296;9.516;2024-01-15T00:34:27;1.80;99.90
47813;DHT22;34221;45.296;9.516;2024-01-15T00:34:41;1.80;99.90
47813;DHT22;34221;45.296;9.516;2024-01-15T00:34:56;1.80;99.90
47813;DHT22;34221;45.296;9.516;2024-01-15T00:35:11;1.90;99.90
47813;DHT22;34221;45.296;9.516;2024-01-15T00:35:26;1.80;99.90
47813;DHT22;34221;45.296;9.516;2024-01-15T00:35:41;1.80;99.90
47813;DHT22;34221;45.296;9.516;2024-01-15T00:35:56;1.80;99.90
47813;DHT22;34221;45.296;9.516;2024-01-15T00:36:11;1.80;99.90
47813;DHT22;34221;45.296;9.516;2024-01-15T00:36:26;1.80;99.90
47813;DHT22;34221;45.296;9.516;2024-01-15T00:36:41;1.80;99.90
47813;DHT22;34221;45.296;9.516;2024-01-15T00:36:55;1.80;99.90
47813;DHT22;34221;45.296;9.516;2024-01-15T00:37:10;1.70;99.90
47813;DHT22;34221;45.296;9.516;2024-01-15T00:37:25;1.70;99.90
47813;DHT22;34221;45.296;9.516;2024-01-15T00:37:40;1.60;99.90
47813;DHT22;34221;45.296;9.516;2024-01-15T00:37:54;1.60;99.90
47813;DHT22;34221;45.296;9.516;2024-01-15T00:38:09;1.60;99.90
47813;DHT22;34221;45.296;9.516;2024-01-15T00:38:44;1.60;99.90
47813;DHT22;34221;45.296;9.516;2024-01-15T00:39:19;1.50;99.90
47813;DHT22;34221;45.296;9.516;2024-01-15T00:39:34;1.50;99.90
47813;DHT22;34221;45.296;9.516;2024-01-15T00:39:49;1.50;99.90
47813;DHT22;34221;45.296;9.516;2024-01-15T00:40:05;1.50;99.90
47813;DHT22;34221;45.296;9.516;2024-01-15T00:40:20;1.50;99.90
47813;DHT22;34221;45.296;9.516;2024-01-15T00:40:35;1.50;99.90
47813;DHT22;34221;45.296;9.516;2024-01-15T00:40:49;1.50;99.90
47813;DHT22;34221;45.296;9.516;2024-01-15T00:41:04;1.50;99.90
47813;DHT22;34221;45.296;9.516;2024-01-15T00:41:19;1.50;99.90
47813;DHT22;34221;45.296;9.516;2024-01-15T00:41:34;1.50;99.90
47813;DHT22;34221;45.296;9.516;2024-01-15T00:41:49;1.60;99.90
47813;DHT22;34221;45.296;9.516;2024-01-15T00:42:04;1.60;99.90
47813;DHT22;34221;45.296;9.516;2024-01-15T00:42:18;1.60;99.90
47813;DHT22;34221;45.296;9.516;2024-01-15T00:42:34;1.60;99.90
47813;DHT22;34221;45.296;9.516;2024-01-15T00:42:48;1.50;99.90
47813;DHT22;34221;45.296;9.516;2024-01-15T00:43:03;1.60;99.90
47813;DHT22;34221;45.296;9.516;2024-01-15T00:43:18;1.60;99.90
47813;DHT22;34221;45.296;9.516;2024-01-15T00:43:33;1.60;99.90
47813;DHT22;34221;45.296;9.516;2024-01-15T00:43:49;1.60;99.90
47813;DHT22;34221;45.296;9.516;2024-01-15T00:44:04;1.60;99.90
47813;DHT22;34221;45.296;9.516;2024-01-15T00:44:19;1.60;99.90
47813;DHT22;34221;45.296;9.516;2024-01-15T00:44:33;1.60;99.90
47813;DHT22;34221;45.296;9.516;2024-01-15T00:44:48;1.60;99.90
47813;DHT22;34221;45.296;9.516;2024-01-15T00:45:03;1.60;99.90
47813;DHT22;34221;45.296;9.516;2024-01-15T00:45:19;1.60;99.90
47813;DHT22;34221;45.296;9.516;2024-01-15T00:45:34;1.60;99.90
47813;DHT22;34221;45.296;9.516;2024-01-15T00:45:49;1.50;99.90
47813;DHT22;34221;45.296;9.516;2024-01-15T00:46:04;1.60;99.90
47813;DHT22;34221;45.296;9.516;2024-01-15T00:46:19;1.60;99.90
47813;DHT22;34221;45.296;9.516;2024-01-15T00:46:44;1.60;99.90
47813;DHT22;34221;45.296;9.516;2024-01-15T00:47:00;1.60;99.90
47813;DHT22;34221;45.296;9.516;2024-01-15T00:47:18;1.60;99.90
47813;DHT22;34221;45.296;9.516;2024-01-15T00:47:33;1.60;99.90
47813;DHT22;34221;45.296;9.516;2024-01-15T00:47:49;1.60;99.90
47813;DHT22;34221;45.296;9.516;2024-01-15T00:48:04;1.60;99.90
47813;DHT22;34221;45.296;9.516;2024-01-15T00:48:19;1.60;99.90
47813;DHT22;34221;45.296;9.516;2024-01-15T00:48:34;1.60;99.90
47813;DHT22;34221;45.296;9.516;2024-01-15T00:48:48;1.70;99.90
47813;DHT22;34221;45.296;9.516;2024-01-15T00:49:03;1.70;99.90
47813;DHT22;34221;45.296;9.516;2024-01-15T00:49:18;1.70;99.90
47813;DHT22;34221;45.296;9.516;2024-01-15T00:49:32;1.70;99.90
47813;DHT22;34221;45.296;9.516;2024-01-15T00:49:47;1.70;99.90
47813;DHT22;34221;45.296;9.516;2024-01-15T00:50:02;1.70;99.90
47813;DHT22;34221;45.296;9.516;2024-01-15T00:50:17;1.70;99.90
47813;DHT22;34221;45.296;9.516;2024-01-15T00:50:32;1.70;99.90
47813;DHT22;34221;45.296;9.516;2024-01-15T00:50:47;1.70;99.90
47813;DHT22;34221;45.296;9.516;2024-01-15T00:51:02;1.70;99.90
47813;DHT22;34221;45.296;9.516;2024-01-15T00:51:17;1.80;99.90
47813;DHT22;34221;45.296;9.516;2024-01-15T00:51:32;1.80;99.90
47813;DHT22;34221;45.296;9.516;2024-01-15T00:51:47;1.80;99.90
47813;DHT22;34221;45.296;9.516;2024-01-15T00:52:02;1.80;99.90
47813;DHT22;34221;45.296;9.516;2024-01-15T00:52:16;1.80;99.90
47813;DHT22;34221;45.296;9.516;2024-01-15T00:52:31;1.80;99.90
47813;DHT22;34221;45.296;9.516;2024-01-15T00:52:46;1.80;99.90
47813;DHT22;34221;45.296;9.516;2024-01-15T00:53:01;1.80;99.90
47813;DHT22;34221;45.296;9.516;2024-01-15T00:53:16;1.80;99.90
47813;DHT22;34221;45.296;9.516;2024-01-15T00:53:30;1.90;99.90
47813;DHT22;34221;45.296;9.516;2024-01-15T00:53:45;1.90;99.90
47813;DHT22;34221;45.296;9.516;2024-01-15T00:54:00;1.90;99.90
47813;DHT22;34221;45.296;9.516;2024-01-15T00:54:15;1.90;99.90
47813;DHT22;34221;45.296;9.516;2024-01-15T00:54:29;1.90;99.90
47813;DHT22;34221;45.296;9.516;2024-01-15T00:54:44;1.90;99.90
47813;DHT22;34221;45.296;9.516;2024-01-15T00:54:59;1.90;99.90
47813;DHT22;34221;45.296;9.516;2024-01-15T00:55:14;1.90;99.90
47813;DHT22;34221;45.296;9.516;2024-01-15T00:55:28;1.90;99.90
47813;DHT22;34221;45.296;9.516;2024-01-15T00:55:44;1.90;99.90
47813;DHT22;34221;45.296;9.516;2024-01-15T00:55:59;1.90;99.90
47813;DHT22;34221;45.296;9.516;2024-01-15T00:56:14;1.90;99.90
47813;DHT22;34221;45.296;9.516;2024-01-15T00:56:28;1.90;99.90
47813;DHT22;34221;45.296;9.516;2024-01-15T00:56:43;1.90;99.90
47813;DHT22;34221;45.296;9.516;2024-01-15T00:56:58;1.90;99.90
47813;DHT22;34221;45.296;9.516;2024-01-15T00:57:12;2.00;99.90
47813;DHT22;34221;45.296;9.516;2024-01-15T00:57:27;2.00;99.90
47813;DHT22;34221;45.296;9.516;2024-01-15T00:57:42;2.00;99.90
47813;DHT22;34221;45.296;9.516;2024-01-15T00:57:57;2.10;99.90
47813;DHT22;34221;45.296;9.516;2024-01-15T00:58:12;2.10;99.90
47813;DHT22;34221;45.296;9.516;2024-01-15T00:58:27;2.00;99.90
47813;DHT22;34221;45.296;9.516;2024-01-15T00:58:41;2.00;99.90
47813;DHT22;34221;45.296;9.516;2024-01-15T00:58:56;2.00;99.90
47813;DHT22;34221;45.296;9.516;2024-01-15T00:59:11;2.00;99.90
47813;DHT22;34221;45.296;9.516;2024-01-15T00:59:29;2.00;99.90
47813;DHT22;34221;45.296;9.516;2024-01-15T00:59:44;2.00;99.90
47813;DHT22;34221;45.296;9.516;2024-01-15T00:59:58;2.10;99.90
47813;DHT22;34221;45.296;9.516;2024-01-15T01:00:13;2.10;99.90
47813;DHT22;34221;45.296;9.516;2024-01-15T01:00:29;2.10;99.90
47813;DHT22;34221;45.296;9.516;2024-01-15T01:00:43;2.10;99.90
47813;DHT22;34221;45.296;9.516;2024-01-15T01:00:58;2.10;99.90
47813;DHT22;34221;45.296;9.516;2024-01-15T01:01:13;2.10;99.90
47813;DHT22;34221;45.296;9.516;2024-01-15T01:01:28;2.10;99.90
47813;DHT22;34221;45.296;9.516;2024-01-15T01:01:45;2.10;99.90
47813;DHT22;34221;45.296;9.516;2024-01-15T01:02:00;2.10;99.90
47813;DHT22;34221;45.296;9.516;2024-01-15T01:02:15;2.10;99.90
47813;DHT22;34221;45.296;9.516;2024-01-15T01:02:30;2.10;99.90
47813;DHT22;34221;45.296;9.516;2024-01-15T01:02:44;2.10;99.90
47813;DHT22;34221;45.296;9.516;2024-01-15T01:02:59;2.10;99.90
47813;DHT22;34221;45.296;9.516;2024-01-15T01:03:14;2.10;99.90
47813;DHT22;34221;45.296;9.516;2024-01-15T01:03:29;2.10;99.90
47813;DHT22;34221;45.296;9.516;2024-01-15T01:03:44;2.10;99.90
47813;DHT22;34221;45.296;9.516;2024-01-15T01:03:59;2.10;99.90
47813;DHT22;34221;45.296;9.516;2024-01-15T01:04:13;2.10;99.90
47813;DHT22;34221;45.296;9.516;2024-01-15T01:04:28;2.20;99.90
47813;DHT22;34221;45.296;9.516;2024-01-15T01:04:43;2.20;99.90
47813;DHT22;34221;45.296;9.516;2024-01-15T01:04:58;2.20;99.90
47813;DHT22;34221;45.296;9.516;2024-01-15T01:05:12;2.20;99.90
47813;DHT22;34221;45.296;9.516;2024-01-15T01:05:27;2.20;99.90
47813;DHT22;34221;45.296;9.516;2024-01-15T01:05:42;2.20;99.90
47813;DHT22;34221;45.296;9.516;2024-01-15T01:05:58;2.20;99.90
47813;DHT22;34221;45.296;9.516;2024-01-15T01:06:13;2.20;99.90
47813;DHT22;34221;45.296;9.516;2024-01-15T01:06:28;2.20;99.90
47813;DHT22;34221;45.296;9.516;2024-01-15T01:06:42;2.20;99.90
47813;DHT22;34221;45.296;9.516;2024-01-15T01:06:57;2.20;99.90
47813;DHT22;34221;45.296;9.516;2024-01-15T01:07:12;2.20;99.90
47813;DHT22;34221;45.296;9.516;2024-01-15T01:07:26;2.30;99.90
47813;DHT22;34221;45.296;9.516;2024-01-15T01:07:41;2.20;99.90
47813;DHT22;34221;45.296;9.516;2024-01-15T01:07:56;2.20;99.90
47813;DHT22;34221;45.296;9.516;2024-01-15T01:08:11;2.20;99.90
47813;DHT22;34221;45.296;9.516;2024-01-15T01:08:25;2.20;99.90
47813;DHT22;34221;45.296;9.516;2024-01-15T01:08:40;2.20;99.90
47813;DHT22;34221;45.296;9.516;2024-01-15T01:08:55;2.20;99.90
47813;DHT22;34221;45.296;9.516;2024-01-15T01:09:10;2.20;99.90
47813;DHT22;34221;45.296;9.516;2024-01-15T01:09:24;2.20;99.90
47813;DHT22;34221;45.296;9.516;2024-01-15T01:09:39;2.20;99.90
47813;DHT22;34221;45.296;9.516;2024-01-15T01:09:54;2.20;99.90
47813;DHT22;34221;45.296;9.516;2024-01-15T01:10:09;2.20;99.90
47813;DHT22;34221;45.296;9.516;2024-01-15T01:10:24;2.20;99.90
47813;DHT22;34221;45.296;9.516;2024-01-15T01:10:38;2.20;99.90
47813;DHT22;34221;45.296;9.516;2024-01-15T01:10:55;2.20;99.90
47813;DHT22;34221;45.296;9.516;2024-01-15T01:11:13;2.20;99.90
47813;DHT22;34221;45.296;9.516;2024-01-15T01:11:28;2.20;99.90
47813;DHT22;34221;45.296;9.516;2024-01-15T01:11:43;2.20;99.90
47813;DHT22;34221;45.296;9.516;2024-01-15T01:11:57;2.20;99.90
47813;DHT22;34221;45.296;9.516;2024-01-15T01:12:12;2.20;99.90
47813;DHT22;34221;45.296;9.516;2024-01-15T01:12:27;2.20;99.90
47813;DHT22;34221;45.296;9.516;2024-01-15T01:12:42;2.20;99.90
47813;DHT22;34221;45.296;9.516;2024-01-15T01:12:56;2.20;99.90
47813;DHT22;34221;45.296;9.516;2024-01-15T01:13:11;2.20;99.90
47813;DHT22;34221;45.296;9.516;2024-01-15T01:13:26;2.20;99.90
47813;DHT22;34221;45.296;9.516;2024-01-15T01:13:41;2.30;99.90
47813;DHT22;34221;45.296;9.516;2024-01-15T01:13:55;2.30;99.90
47813;DHT22;34221;45.296;9.516;2024-01-15T01:14:11;2.40;99.90
47813;DHT22;34221;45.296;9.516;2024-01-15T01:14:26;2.40;99.90
47813;DHT22;34221;45.296;9.516;2024-01-15T01:14:41;2.40;99.90
47813;DHT22;34221;45.296;9.516;2024-01-15T01:14:56;2.40;99.90
47813;DHT22;34221;45.296;9.516;2024-01-15T01:15:11;2.40;99.90
47813;DHT22;34221;45.296;9.516;2024-01-15T01:15:25;2.50;99.90
47813;DHT22;34221;45.296;9.516;2024-01-15T01:15:40;2.50;99.90
47813;DHT22;34221;45.296;9.516;2024-01-15T01:15:55;2.50;99.90
47813;DHT22;34221;45.296;9.516;2024-01-15T01:16:10;2.50;99.90
47813;DHT22;34221;45.296;9.516;2024-01-15T01:16:24;2.50;99.90
47813;DHT22;34221;45.296;9.516;2024-01-15T01:16:39;2.50;99.90
47813;DHT22;34221;45.296;9.516;2024-01-15T01:16:54;2.50;99.90
47813;DHT22;34221;45.296;9.516;2024-01-15T01:17:09;2.60;99.90
47813;DHT22;34221;45.296;9.516;2024-01-15T01:17:24;2.50;99.90
47813;DHT22;34221;45.296;9.516;2024-01-15T01:17:39;2.50;99.90
47813;DHT22;34221;45.296;9.516;2024-01-15T01:17:54;2.50;99.90
47813;DHT22;34221;45.296;9.516;2024-01-15T01:18:08;2.40;99.90
47813;DHT22;34221;45.296;9.516;2024-01-15T01:18:23;2.40;99.90
47813;DHT22;34221;45.296;9.516;2024-01-15T01:18:38;2.40;99.90
47813;DHT22;34221;45.296;9.516;2024-01-15T01:18:53;2.40;99.90
47813;DHT22;34221;45.296;9.516;2024-01-15T01:19:07;2.40;99.90
47813;DHT22;34221;45.296;9.516;2024-01-15T01:19:22;2.40;99.90
47813;DHT22;34221;45.296;9.516;2024-01-15T01:19:37;2.40;99.90
47813;DHT22;34221;45.296;9.516;2024-01-15T01:19:52;2.40;99.90
47813;DHT22;34221;45.296;9.516;2024-01-15T01:20:07;2.40;99.90
47813;DHT22;34221;45.296;9.516;2024-01-15T01:20:23;2.50;99.90
47813;DHT22;34221;45.296;9.516;2024-01-15T01:20:38;2.40;99.90
47813;DHT22;34221;45.296;9.516;2024-01-15T01:20:53;2.50;99.90
47813;DHT22;34221;45.296;9.516;2024-01-15T01:21:07;2.50;99.90
47813;DHT22;34221;45.296;9.516;2024-01-15T01:21:22;2.50;99.90
47813;DHT22;34221;45.296;9.516;2024-01-15T01:21:37;2.50;99.90
47813;DHT22;34221;45.296;9.516;2024-01-15T01:21:52;2.50;99.90
47813;DHT22;34221;45.296;9.516;2024-01-15T01:22:06;2.40;99.90
47813;DHT22;34221;45.296;9.516;2024-01-15T01:22:21;2.50;99.90
47813;DHT22;34221;45.296;9.516;2024-01-15T01:22:36;2.50;99.90
47813;DHT22;34221;45.296;9.516;2024-01-15T01:22:51;2.50;99.90
47813;DHT22;34221;45.296;9.516;2024-01-15T01:23:06;2.40;99.90
47813;DHT22;34221;45.296;9.516;2024-01-15T01:23:20;2.50;99.90
47813;DHT22;34221;45.296;9.516;2024-01-15T01:23:35;2.50;99.90
47813;DHT22;34221;45.296;9.516;2024-01-15T01:23:50;2.50;99.90
47813;DHT22;34221;45.296;9.516;2024-01-15T01:24:05;2.50;99.90
47813;DHT22;34221;45.296;9.516;2024-01-15T01:24:20;2.60;99.90
47813;DHT22;34221;45.296;9.516;2024-01-15T01:24:34;2.60;99.90
47813;DHT22;34221;45.296;9.516;2024-01-15T01:24:49;2.50;99.90
47813;DHT22;34221;45.296;9.516;2024-01-15T01:25:04;2.50;99.90
47813;DHT22;34221;45.296;9.516;2024-01-15T01:25:19;2.50;99.90
47813;DHT22;34221;45.296;9.516;2024-01-15T01:25:34;2.60;99.90
47813;DHT22;34221;45.296;9.516;2024-01-15T01:25:48;2.60;99.90
47813;DHT22;34221;45.296;9.516;2024-01-15T01:26:03;2.50;99.90
47813;DHT22;34221;45.296;9.516;2024-01-15T01:26:18;2.60;99.90
47813;DHT22;34221;45.296;9.516;2024-01-15T01:26:32;2.50;99.90
47813;DHT22;34221;45.296;9.516;2024-01-15T01:26:47;2.50;99.90
47813;DHT22;34221;45.296;9.516;2024-01-15T01:27:02;2.50;99.90
47813;DHT22;34221;45.296;9.516;2024-01-15T01:27:17;2.50;99.90
47813;DHT22;34221;45.296;9.516;2024-01-15T01:27:31;2.50;99.90
47813;DHT22;34221;45.296;9.516;2024-01-15T01:27:46;2.50;99.90
47813;DHT22;34221;45.296;9.516;2024-01-15T01:28:01;2.50;99.90
47813;DHT22;34221;45.296;9.516;2024-01-15T01:28:15;2.50;99.90
47813;DHT22;34221;45.296;9.516;2024-01-15T01:28:30;2.50;99.90
47813;DHT22;34221;45.296;9.516;2024-01-15T01:28:45;2.60;99.90
47813;DHT22;34221;45.296;9.516;2024-01-15T01:29:00;2.60;99.90
47813;DHT22;34221;45.296;9.516;2024-01-15T01:29:15;2.50;99.90
47813;DHT22;34221;45.296;9.516;2024-01-15T01:29:29;2.50;99.90
47813;DHT22;34221;45.296;9.516;2024-01-15T01:29:44;2.50;99.90
47813;DHT22;34221;45.296;9.516;2024-01-15T01:29:59;2.50;99.90
47813;DHT22;34221;45.296;9.516;2024-01-15T01:30:14;2.50;99.90
47813;DHT22;34221;45.296;9.516;2024-01-15T01:30:28;2.50;99.90
47813;DHT22;34221;45.296;9.516;2024-01-15T01:30:43;2.50;99.90
47813;DHT22;34221;45.296;9.516;2024-01-15T01:30:59;2.50;99.90
47813;DHT22;34221;45.296;9.516;2024-01-15T01:31:14;2.40;99.90
47813;DHT22;34221;45.296;9.516;2024-01-15T01:31:28;2.40;99.90
47813;DHT22;34221;45.296;9.516;2024-01-15T01:31:44;2.40;99.90
47813;DHT22;34221;45.296;9.516;2024-01-15T01:31:59;2.40;99.90
47813;DHT22;34221;45.296;9.516;2024-01-15T01:32:13;2.40;99.90
47813;DHT22;34221;45.296;9.516;2024-01-15T01:32:28;2.40;99.90
47813;DHT22;34221;45.296;9.516;2024-01-15T01:32:43;2.50;99.90
47813;DHT22;34221;45.296;9.516;2024-01-15T01:32:58;2.40;99.90
47813;DHT22;34221;45.296;9.516;2024-01-15T01:33:12;2.40;99.90
47813;DHT22;34221;45.296;9.516;2024-01-15T01:33:27;2.50;99.90
47813;DHT22;34221;45.296;9.516;2024-01-15T01:33:42;2.50;99.90
47813;DHT22;34221;45.296;9.516;2024-01-15T01:33:56;2.50;99.90
47813;DHT22;34221;45.296;9.516;2024-01-15T01:34:14;2.40;99.90
47813;DHT22;34221;45.296;9.516;2024-01-15T01:34:29;2.40;99.90
47813;DHT22;34221;45.296;9.516;2024-01-15T01:34:44;2.30;99.90
47813;DHT22;34221;45.296;9.516;2024-01-15T01:34:59;2.30;99.90
47813;DHT22;34221;45.296;9.516;2024-01-15T01:35:14;2.30;99.90
47813;DHT22;34221;45.296;9.516;2024-01-15T01:35:29;2.30;99.90
47813;DHT22;34221;45.296;9.516;2024-01-15T01:35:43;2.30;99.90
47813;DHT22;34221;45.296;9.516;2024-01-15T01:35:59;2.30;99.90
47813;DHT22;34221;45.296;9.516;2024-01-15T01:36:14;2.20;99.90
47813;DHT22;34221;45.296;9.516;2024-01-15T01:36:31;2.20;99.90
47813;DHT22;34221;45.296;9.516;2024-01-15T01:36:46;2.20;99.90
47813;DHT22;34221;45.296;9.516;2024-01-15T01:37:01;2.20;99.90
47813;DHT22;34221;45.296;9.516;2024-01-15T01:37:15;2.20;99.90